Time;durP1;ratioP1;P1;durP2;ratioP2;P2;SDS_P1;SDS_P2;PMS_P1;PMS_P2;Temp;Humidity;BMP_temperature;BMP_pressure;BME280_temperature;BME280_humidity;BME280_pressure;Samples;Min_cycle;Max_cycle;Signal;HPM_P1;HPM_P2
2022/08/28 00:00:58;;;;;;;9.23;3.17;;;;;;;16.21;66.35;101552.00;4993547;28;20085;-45
2022/08/28 00:03:25;;;;;;;3.67;2.42;;;;;;;16.19;66.41;101555.16;4992276;28;20161;-46
2022/08/28 00:05:52;;;;;;;6.65;2.90;;;;;;;16.16;66.45;101555.88;4992705;28;20055;-45
2022/08/28 00:08:19;;;;;;;7.20;2.95;;;;;;;16.14;66.63;101549.03;4993679;28;20043;-46
2022/08/28 00:10:47;;;;;;;4.15;2.45;;;;;;;16.13;66.55;101551.03;4993810;28;20050;-45
2022/08/28 00:13:17;;;;;;;10.20;2.85;;;;;;;16.12;66.51;101552.22;4994623;28;20042;-46
2022/08/28 00:15:47;;;;;;;3.05;2.00;;;;;;;16.08;66.72;101548.50;4993747;28;20100;-45
2022/08/28 00:18:14;;;;;;;5.97;2.80;;;;;;;16.10;66.81;101557.34;4991914;28;20042;-46
2022/08/28 00:20:45;;;;;;;5.50;1.95;;;;;;;16.09;66.77;101544.56;4993625;28;20043;-44
2022/08/28 00:23:12;;;;;;;4.20;2.20;;;;;;;16.11;67.07;101552.56;4993602;28;20046;-46
2022/08/28 00:25:39;;;;;;;4.70;2.33;;;;;;;16.12;67.19;101559.78;4993735;28;20112;-45
2022/08/28 00:28:08;;;;;;;6.18;2.55;;;;;;;16.11;67.40;101552.56;4992979;28;20048;-45
2022/08/28 00:30:36;;;;;;;4.72;3.17;;;;;;;16.12;67.34;101563.38;4992859;28;20054;-46
2022/08/28 00:33:14;;;;;;;4.70;2.00;;;;;;;16.15;67.52;101557.06;4976089;28;20092;-45
2022/08/28 00:36:02;;;;;;;2.70;1.83;;;;;;;16.13;67.47;101556.63;4992097;28;20125;-46
2022/08/28 00:38:49;;;;;;;8.38;3.15;;;;;;;16.10;67.67;101551.75;4985961;28;20133;-45
2022/08/28 00:41:39;;;;;;;3.95;3.00;;;;;;;16.11;67.86;101553.38;4993437;28;20038;-45
2022/08/28 00:44:27;;;;;;;4.20;2.22;;;;;;;16.13;67.94;101553.00;4993651;28;20046;-46
2022/08/28 00:47:14;;;;;;;2.97;1.83;;;;;;;16.18;67.88;101558.31;4991672;28;20046;-45
2022/08/28 00:50:03;;;;;;;2.92;1.40;;;;;;;16.22;67.68;101559.22;4993979;28;20120;-46
2022/08/28 00:52:58;;;;;;;3.50;1.50;;;;;;;16.23;67.96;101555.25;4991182;28;20059;-45
2022/08/28 00:55:46;;;;;;;5.35;2.03;;;;;;;16.22;68.00;101559.22;4969468;28;20130;-44
2022/08/28 00:58:33;;;;;;;2.83;1.23;;;;;;;16.24;68.04;101563.25;4993467;28;20554;-44
2022/08/28 01:01:21;;;;;;;3.45;1.40;;;;;;;16.24;68.20;101554.88;4982681;28;20586;-45
2022/08/28 01:04:11;;;;;;;4.03;1.98;;;;;;;16.23;68.38;101555.25;4995302;28;20501;-45
2022/08/28 01:07:01;;;;;;;4.22;1.13;;;;;;;16.22;68.32;101556.41;4994562;28;20141;-45
2022/08/28 01:09:51;;;;;;;2.97;1.10;;;;;;;16.20;68.67;101551.19;4995929;28;20575;-45
2022/08/28 01:12:38;;;;;;;4.82;1.40;;;;;;;16.18;68.62;101553.53;4996058;28;20043;-44
2022/08/28 01:15:30;;;;;;;2.95;1.17;;;;;;;16.17;68.52;101543.56;4982764;28;20129;-45
2022/08/28 01:18:20;;;;;;;5.13;1.30;;;;;;;16.15;68.68;101548.66;4990820;28;20088;-44
2022/08/28 01:21:25;;;;;;;5.90;1.63;;;;;;;16.17;68.96;101551.13;4982128;28;20150;-44
2022/08/28 01:28:23;;;;;;;8.13;2.05;;;;;;;16.13;68.83;101545.44;4991004;28;20129;-44
2022/08/28 01:31:12;;;;;;;3.28;1.70;;;;;;;16.12;69.10;101545.81;4994809;28;20476;-45
2022/08/28 01:34:00;;;;;;;6.47;1.67;;;;;;;16.10;69.26;101534.16;4996831;28;20378;-45
2022/08/28 01:36:47;;;;;;;4.13;1.48;;;;;;;16.10;69.28;101548.13;4993287;28;20121;-46
2022/08/28 01:39:21;;;;;;;4.20;2.35;;;;;;;16.09;69.34;101544.56;4995417;28;20077;-44
2022/08/28 01:45:53;;;;;;;2.50;1.63;;;;;;;16.00;69.48;101545.91;4994536;28;20042;-46
2022/08/28 01:48:42;;;;;;;3.15;1.40;;;;;;;15.99;69.83;101544.31;4995397;28;20401;-44
2022/08/28 01:51:29;;;;;;;3.63;1.48;;;;;;;15.97;69.84;101547.44;4993210;28;20128;-50
2022/08/28 01:54:21;;;;;;;6.05;2.15;;;;;;;15.95;69.80;101547.00;4976824;28;20054;-47
2022/08/28 01:57:08;;;;;;;3.30;1.50;;;;;;;15.92;70.04;101544.94;4994222;28;20210;-44
2022/08/28 01:59:55;;;;;;;1.63;1.33;;;;;;;15.89;70.21;101542.84;4994763;28;20038;-46
2022/08/28 02:02:42;;;;;;;2.58;1.33;;;;;;;15.85;70.35;101550.34;4994245;28;20051;-45
2022/08/28 02:05:31;;;;;;;2.55;1.20;;;;;;;15.82;70.38;101545.47;4992045;28;20046;-48
2022/08/28 02:08:19;;;;;;;3.15;1.33;;;;;;;15.78;70.49;101545.38;4992692;28;20118;-46
2022/08/28 02:11:07;;;;;;;2.95;1.88;;;;;;;15.74;70.77;101544.50;4995207;28;20073;-46
2022/08/28 02:13:55;;;;;;;7.45;3.17;;;;;;;15.73;70.76;101544.84;4980983;28;20177;-45
2022/08/28 02:16:42;;;;;;;12.63;5.78;;;;;;;15.69;70.87;101538.38;4995287;28;20535;-49
2022/08/28 02:19:31;;;;;;;8.80;4.45;;;;;;;15.64;70.94;101538.66;4989959;28;20558;-44
2022/08/28 02:22:18;;;;;;;5.28;2.95;;;;;;;15.60;71.21;101543.31;4994391;28;20129;-45
2022/08/28 02:25:06;;;;;;;8.68;2.50;;;;;;;15.55;71.31;101538.00;4992462;28;20497;-44
2022/08/28 02:32:05;;;;;;;3.00;1.35;;;;;;;15.51;71.33;101554.69;4990872;28;20078;-43
2022/08/28 02:34:53;;;;;;;1.38;1.27;;;;;;;15.49;71.40;101550.63;4993126;28;20144;-45
2022/08/28 02:37:41;;;;;;;2.40;1.40;;;;;;;15.46;71.58;101548.53;4993042;28;20191;-45
2022/08/28 02:40:28;;;;;;;2.45;1.40;;;;;;;15.43;71.82;101541.66;4992532;28;20067;-44
2022/08/28 02:43:16;;;;;;;3.22;1.55;;;;;;;15.42;71.83;101550.38;4993850;28;20038;-44
2022/08/28 02:46:04;;;;;;;2.15;1.27;;;;;;;15.42;72.12;101542.00;4991515;28;20046;-48
2022/08/28 02:48:51;;;;;;;3.22;1.45;;;;;;;15.40;72.14;101547.97;4994073;28;20128;-44
2022/08/28 02:51:38;;;;;;;4.78;1.80;;;;;;;15.39;72.25;101542.72;4994682;28;20200;-44
2022/08/28 02:54:25;;;;;;;2.78;2.05;;;;;;;15.39;72.44;101542.72;4993559;28;20196;-44
2022/08/28 02:57:13;;;;;;;4.82;2.00;;;;;;;15.37;72.52;101545.88;4987283;28;20197;-44
2022/08/28 03:00:01;;;;;;;4.65;2.15;;;;;;;15.35;72.73;101539.03;4993815;28;20129;-47
2022/08/28 04:59:29;;;;;;;5.30;2.08;;;;;;;15.15;74.35;101533.34;4927965;23;20139;-46
2022/08/28 05:02:19;;;;;;;3.10;1.85;;;;;;;15.14;74.40;101537.28;4957190;29;20126;-47
2022/08/28 05:05:06;;;;;;;2.33;1.48;;;;;;;15.15;74.46;101533.34;4958445;29;20054;-48
2022/08/28 05:07:54;;;;;;;3.53;1.42;;;;;;;15.15;74.59;101536.13;4954823;29;20142;-45
2022/08/28 05:10:41;;;;;;;3.53;1.70;;;;;;;15.14;74.62;101537.28;4957297;29;20094;-44
2022/08/28 05:13:28;;;;;;;2.17;1.80;;;;;;;15.18;74.60;101531.81;4958378;29;20138;-45
2022/08/28 05:16:16;;;;;;;6.95;1.70;;;;;;;15.18;74.46;101549.38;4957014;29;20233;-43
2022/08/28 05:19:04;;;;;;;6.93;1.83;;;;;;;15.15;74.77;101544.50;4953701;29;20525;-44
2022/08/28 05:21:52;;;;;;;2.25;1.65;;;;;;;15.16;74.77;101543.34;4957726;29;20093;-45
2022/08/28 05:24:39;;;;;;;3.28;1.77;;;;;;;15.15;74.80;101547.28;4957455;29;20059;-47
2022/08/28 05:27:28;;;;;;;3.38;1.73;;;;;;;15.19;74.90;101547.41;4956573;29;20055;-48
2022/08/28 05:30:15;;;;;;;2.47;1.90;;;;;;;15.18;74.77;101554.94;4937674;29;20083;-43
2022/08/28 05:33:03;;;;;;;5.03;2.00;;;;;;;15.18;75.03;101559.69;4949963;29;20039;-45
2022/08/28 05:35:50;;;;;;;3.80;1.55;;;;;;;15.17;74.95;101556.09;4957191;29;20133;-46
2022/08/28 05:38:38;;;;;;;3.67;1.83;;;;;;;15.19;75.03;101552.97;4954304;28;20094;-47
2022/08/28 05:41:28;;;;;;;4.32;1.92;;;;;;;15.17;75.27;101552.50;4956284;29;20043;-45
2022/08/28 05:44:17;;;;;;;3.67;1.67;;;;;;;15.18;75.30;101563.31;4957390;29;20106;-47
2022/08/28 05:47:04;;;;;;;2.22;1.58;;;;;;;15.18;75.38;101560.53;4955618;29;20648;-47
2022/08/28 05:49:51;;;;;;;4.25;2.30;;;;;;;15.20;75.35;101574.91;4956139;29;20186;-46
2022/08/28 05:52:39;;;;;;;3.38;1.60;;;;;;;15.23;75.27;101568.63;4957818;29;20088;-43
2022/08/28 05:55:26;;;;;;;3.17;1.58;;;;;;;15.27;75.59;101568.72;4956268;29;20064;-46
2022/08/28 05:58:28;;;;;;;2.35;1.58;;;;;;;15.29;75.35;101571.16;4943088;29;20501;-43
2022/08/28 06:01:18;;;;;;;3.17;1.23;;;;;;;15.28;75.42;101564.75;4951631;29;20625;-45
2022/08/28 06:04:17;;;;;;;2.42;1.40;;;;;;;15.31;75.41;101574.38;4954538;29;20125;-45
2022/08/28 06:07:05;;;;;;;4.68;1.75;;;;;;;15.33;75.36;101572.09;4957225;28;20491;-45
2022/08/28 06:09:52;;;;;;;4.05;1.73;;;;;;;15.37;75.32;101586.94;4925323;29;20059;-47
2022/08/28 06:12:39;;;;;;;8.25;2.47;;;;;;;15.39;75.33;101581.78;4936974;29;20100;-45
2022/08/28 06:15:26;;;;;;;4.65;1.90;;;;;;;15.42;75.21;101584.69;4937065;29;20051;-50
2022/08/28 06:17:54;;;;;;;1.77;1.38;;;;;;;15.45;75.30;101580.38;4955479;29;20098;-47
2022/08/28 06:20:22;;;;;;;3.55;1.98;;;;;;;15.46;75.41;101582.03;4956669;29;20524;-44
2022/08/28 06:22:49;;;;;;;2.47;1.83;;;;;;;15.48;75.35;101588.88;4957708;29;20055;-43
2022/08/28 06:25:16;;;;;;;4.28;1.88;;;;;;;15.52;75.40;101591.75;4956707;29;20397;-44
2022/08/28 06:27:43;;;;;;;3.80;1.63;;;;;;;15.56;75.29;101587.09;4954634;29;20051;-44
2022/08/28 06:30:10;;;;;;;4.35;1.50;;;;;;;15.59;75.33;101580.78;4956780;29;20035;-45
2022/08/28 06:32:37;;;;;;;3.25;1.50;;;;;;;15.62;75.35;101591.25;4956179;29;20114;-47
2022/08/28 06:35:04;;;;;;;2.20;1.75;;;;;;;15.64;75.33;101588.91;4956431;29;20047;-45
2022/08/28 06:37:31;;;;;;;3.85;1.88;;;;;;;15.64;75.34;101589.72;4955761;29;20043;-45
2022/08/28 06:39:58;;;;;;;5.78;1.33;;;;;;;15.66;75.28;101592.13;4956501;29;20075;-44
2022/08/28 06:42:27;;;;;;;2.35;1.50;;;;;;;15.67;75.36;101583.38;4956349;29;20058;-47
2022/08/28 06:44:53;;;;;;;1.65;1.38;;;;;;;15.70;75.21;101587.47;4956575;29;20452;-47
2022/08/28 06:47:20;;;;;;;5.28;1.80;;;;;;;15.70;75.25;101590.25;4955042;29;20090;-45
2022/08/28 06:49:48;;;;;;;3.70;1.40;;;;;;;15.71;75.30;101591.84;4939576;28;20437;-42
2022/08/28 06:52:15;;;;;;;3.60;1.85;;;;;;;15.74;75.24;101591.97;4955013;29;20388;-47
2022/08/28 06:54:41;;;;;;;3.33;1.40;;;;;;;15.77;75.19;101590.44;4956404;29;20047;-47
2022/08/28 06:57:21;;;;;;;3.22;1.58;;;;;;;15.78;75.27;101584.47;4955653;29;20138;-43
2022/08/28 07:03:44;;;;;;;1.83;1.15;;;;;;;15.86;75.23;101585.47;4955120;29;20066;-43
2022/08/28 07:06:13;;;;;;;4.18;2.25;;;;;;;15.91;75.40;101588.00;4955095;29;20043;-45
2022/08/28 07:08:41;;;;;;;6.03;1.90;;;;;;;15.96;75.46;101592.50;4950836;28;20039;-47
2022/08/28 07:11:27;;;;;;;3.55;1.20;;;;;;;15.99;75.37;101598.16;4955991;29;20094;-45
2022/08/28 07:13:56;;;;;;;1.90;1.08;;;;;;;16.03;75.39;101595.47;4955803;29;20050;-46
2022/08/28 07:16:26;;;;;;;3.50;1.50;;;;;;;16.05;75.35;101590.31;4955924;28;20073;-46
2022/08/28 07:18:54;;;;;;;1.63;1.38;;;;;;;16.05;75.43;101593.94;4938671;29;20501;-46
2022/08/28 07:21:21;;;;;;;4.78;1.40;;;;;;;16.12;75.29;101599.72;4955838;29;20054;-46
2022/08/28 07:23:49;;;;;;;1.77;1.00;;;;;;;16.18;75.36;101603.00;4939156;29;20067;-44
2022/08/28 07:26:21;;;;;;;2.15;1.10;;;;;;;16.22;75.28;101604.75;4955236;29;20043;-51
2022/08/28 07:28:49;;;;;;;5.75;1.70;;;;;;;16.27;75.26;101604.47;4953557;29;20043;-45
2022/08/28 07:31:19;;;;;;;3.95;1.63;;;;;;;16.27;75.31;101603.63;4955058;29;20039;-48
2022/08/28 07:33:49;;;;;;;6.78;2.70;;;;;;;16.25;75.41;101615.19;4951536;29;20043;-48
2022/08/28 07:36:22;;;;;;;2.70;1.42;;;;;;;16.28;75.39;101611.66;4950452;28;20047;-51
2022/08/28 07:38:57;;;;;;;3.90;1.67;;;;;;;16.30;75.46;101609.31;4951340;29;20047;-46
2022/08/28 07:45:28;;;;;;;2.55;1.40;;;;;;;16.43;75.39;101612.81;4945967;29;20047;-47
2022/08/28 07:47:56;;;;;;;3.28;1.38;;;;;;;16.53;75.37;101612.28;4953957;28;20388;-50
2022/08/28 07:50:23;;;;;;;4.03;1.23;;;;;;;16.66;75.30;101612.94;4936148;29;20387;-47
2022/08/28 07:52:50;;;;;;;1.85;1.35;;;;;;;16.79;75.32;101617.25;4955347;29;20051;-45
2022/08/28 07:55:16;;;;;;;1.95;1.10;;;;;;;16.90;75.12;101612.69;4955411;29;20043;-44
2022/08/28 08:06:33;;;;;;;3.38;1.38;;;;;;;17.01;74.54;101617.34;4959358;29;20038;-46
2022/08/28 08:09:05;;;;;;;4.53;1.90;;;;;;;17.00;74.71;101623.28;4959280;29;20541;-43
2022/08/28 08:11:32;;;;;;;4.75;1.35;;;;;;;17.00;74.69;101612.09;4958408;29;20177;-48
2022/08/28 08:14:04;;;;;;;7.85;2.00;;;;;;;16.99;74.69;101618.91;4959312;28;20442;-47
2022/08/28 08:16:38;;;;;;;6.68;3.10;;;;;;;17.01;74.76;101619.34;4958837;29;20051;-43
2022/08/28 08:19:08;;;;;;;4.75;1.55;;;;;;;17.02;74.75;101618.16;4958749;29;20043;-47
2022/08/28 08:25:58;;;;;;;2.65;1.75;;;;;;;17.17;74.48;101622.06;4952347;28;20118;-43
2022/08/28 08:37:07;;;;;;;4.20;1.35;;;;;;;17.73;74.15;101630.78;4956873;29;20035;-43
2022/08/28 08:39:54;;;;;;;3.97;1.70;;;;;;;17.93;73.95;101633.16;4955468;29;20155;-47
2022/08/28 08:42:46;;;;;;;2.28;1.15;;;;;;;18.10;73.42;101637.44;4957502;29;20039;-45
2022/08/28 08:53:46;;;;;;;5.63;1.50;;;;;;;18.18;72.42;101634.41;4949582;28;20051;-44
2022/08/28 08:56:33;;;;;;;7.10;1.13;;;;;;;18.24;72.27;101632.09;4950319;29;20506;-46
2022/08/28 08:59:24;;;;;;;2.97;1.23;;;;;;;18.31;72.21;101637.81;4944699;29;20182;-44
2022/08/28 09:02:21;;;;;;;4.00;1.10;;;;;;;18.32;71.64;101639.41;4957157;29;20059;-47
2022/08/28 09:05:26;;;;;;;2.25;0.98;;;;;;;18.16;71.34;101642.34;4955379;28;20039;-45
2022/08/28 09:08:24;;;;;;;2.58;0.98;;;;;;;18.12;71.49;101640.69;4955858;29;20504;-45
2022/08/28 09:11:16;;;;;;;4.82;1.08;;;;;;;18.10;71.43;101643.06;4944330;29;20047;-45
2022/08/28 09:14:04;;;;;;;;;;;;;;;18.10;71.55;101637.44;4957476;28;20054;-44
2022/08/28 09:16:36;;;;;;;2.28;0.63;;;;;;;18.16;71.41;101647.16;4957690;29;19922;-44
2022/08/28 09:19:25;;;;;;;5.53;1.00;;;;;;;18.22;71.16;101640.03;4958435;28;20509;-45
2022/08/28 09:22:12;;;;;;;1.17;0.77;;;;;;;18.26;70.95;101640.91;4955862;29;20051;-46
2022/08/28 09:24:40;;;;;;;5.15;1.45;;;;;;;18.36;70.69;101639.47;4956159;29;20043;-43
2022/08/28 09:27:28;;;;;;;2.97;0.80;;;;;;;18.45;70.52;101640.84;4957142;29;20138;-43
2022/08/28 09:38:40;;;;;;;4.30;1.20;;;;;;;18.80;69.47;101644.19;4948095;29;20481;-45
2022/08/28 09:45:38;;;;;;;1.42;0.68;;;;;;;18.93;68.45;101652.38;4956035;29;20054;-44
2022/08/28 09:48:26;;;;;;;2.85;0.75;;;;;;;19.00;68.12;101646.84;4957697;29;20058;-43
2022/08/28 09:51:02;;;;;;;2.50;0.68;;;;;;;19.14;67.48;101650.66;4956551;29;20512;-43
2022/08/28 09:57:19;;;;;;;3.05;0.85;;;;;;;19.31;67.08;101652.06;4949570;29;20041;-45
2022/08/28 09:59:46;;;;;;;2.40;0.55;;;;;;;19.40;66.66;101649.81;4956241;29;20043;-44
2022/08/28 10:02:37;;;;;;;3.45;1.48;;;;;;;19.47;66.31;101640.66;4957063;29;20047;-42
2022/08/28 10:09:38;;;;;;;2.80;0.70;;;;;;;19.54;65.77;101655.56;4949411;29;20039;-44
2022/08/28 10:12:58;;;;;;;3.28;1.45;;;;;;;19.67;65.40;101654.13;4956126;29;20074;-44
2022/08/28 10:16:03;;;;;;;0.75;0.60;;;;;;;19.83;65.04;101663.13;4955355;29;20058;-42
2022/08/28 10:19:03;;;;;;;4.22;0.77;;;;;;;19.89;64.44;101653.16;4945701;29;20053;-45
2022/08/28 10:33:33;;;;;;;3.85;0.60;;;;;;;19.84;64.57;101663.94;4950853;29;20030;-43
2022/08/28 10:36:31;;;;;;;3.13;1.02;;;;;;;19.79;64.59;101673.53;4954182;29;20054;-42
2022/08/28 10:39:44;;;;;;;3.30;0.80;;;;;;;19.77;64.41;101675.09;4946965;29;20050;-44
2022/08/28 10:42:39;;;;;;;5.10;0.68;;;;;;;19.68;64.77;101681.03;4954319;28;20043;-43
2022/08/28 10:45:19;;;;;;;11.30;1.20;;;;;;;19.61;64.26;101672.53;4955645;29;20110;-45
2022/08/28 10:47:52;;;;;;;2.67;0.80;;;;;;;19.50;64.20;101682.81;4956829;29;20110;-48
2022/08/28 10:50:51;;;;;;;2.95;0.82;;;;;;;19.42;64.03;101684.75;4956170;29;20047;-43
2022/08/28 10:53:53;;;;;;;1.52;1.08;;;;;;;19.42;63.88;101681.13;4949797;29;20055;-44
2022/08/28 10:56:45;;;;;;;3.05;0.50;;;;;;;19.40;63.97;101689.13;4947648;29;20129;-47
2022/08/28 11:03:17;;;;;;;1.00;0.50;;;;;;;19.33;63.78;101689.00;4945313;29;20058;-42
2022/08/28 11:09:50;;;;;;;1.65;0.75;;;;;;;19.36;63.16;101688.22;4946957;29;20039;-43
2022/08/28 11:16:36;;;;;;;1.60;0.70;;;;;;;19.42;63.30;101692.34;4954418;29;20486;-43
2022/08/28 11:30:41;;;;;;;2.10;0.90;;;;;;;19.45;62.25;101691.59;4954931;29;20043;-45
2022/08/28 11:33:39;;;;;;;6.20;0.70;;;;;;;19.50;61.97;101694.06;4954553;28;20045;-45
2022/08/28 11:36:49;;;;;;;1.17;0.50;;;;;;;19.54;61.24;101700.50;4953001;28;20126;-42
2022/08/28 11:43:22;;;;;;;2.75;0.70;;;;;;;19.48;60.89;101695.63;4945832;29;20607;-43
2022/08/28 11:45:52;;;;;;;1.00;0.43;;;;;;;19.47;61.34;101688.41;4955343;29;20094;-42
2022/08/28 12:00:45;;;;;;;2.45;0.45;;;;;;;19.60;60.73;101703.81;4944843;29;20031;-42
2022/08/28 12:03:30;;;;;;;1.67;0.90;;;;;;;19.68;61.05;101699.88;4939152;29;20047;-42
2022/08/28 12:05:59;;;;;;;1.35;0.60;;;;;;;19.75;61.34;101695.16;4953478;28;20039;-45
2022/08/28 12:20:49;;;;;;;5.15;1.65;;;;;;;19.91;61.52;101704.16;4941168;29;20044;-42
2022/08/28 12:27:38;;;;;;;1.42;0.90;;;;;;;19.96;61.29;101695.38;4955148;29;20079;-44
2022/08/28 12:31:12;;;;;;;4.07;1.02;;;;;;;19.95;61.14;101693.78;4952439;29;20138;-42
2022/08/28 12:33:59;;;;;;;2.92;0.63;;;;;;;20.02;61.27;101699.47;4954470;29;20055;-44
2022/08/28 12:36:53;;;;;;;2.53;0.60;;;;;;;20.14;61.03;101703.19;4953038;29;20445;-42
2022/08/28 12:39:21;;;;;;;2.75;0.70;;;;;;;20.16;60.60;101692.34;4954826;29;20047;-43
2022/08/28 12:53:46;;;;;;;0.70;0.70;;;;;;;20.08;59.32;101691.47;4957415;28;20046;-45
2022/08/28 12:56:16;;;;;;;3.00;0.70;;;;;;;19.99;59.46;101688.97;4956831;29;20098;-47
2022/08/28 12:58:44;;;;;;;3.20;0.80;;;;;;;19.94;59.22;101692.16;4958346;29;20680;-42
2022/08/28 13:01:29;;;;;;;1.63;0.80;;;;;;;19.93;59.50;101696.16;4956795;29;20047;-45
2022/08/28 13:08:48;;;;;;;0.75;0.60;;;;;;;19.86;59.18;101695.25;4943836;28;20051;-45
2022/08/28 13:11:37;;;;;;;3.10;1.27;;;;;;;19.78;58.68;101704.81;4956157;29;20501;-42
2022/08/28 13:14:05;;;;;;;2.65;0.68;;;;;;;19.75;58.92;101694.34;4957163;29;20090;-44
2022/08/28 13:24:31;;;;;;;0.80;0.50;;;;;;;19.52;59.39;101691.66;4947452;29;20106;-44
2022/08/28 13:27:07;;;;;;;3.25;0.63;;;;;;;19.54;59.33;101689.28;4952214;29;20043;-43
2022/08/28 13:30:04;;;;;;;4.07;0.65;;;;;;;19.58;59.02;101695.78;4947781;29;20043;-44
2022/08/28 13:32:35;;;;;;;0.60;0.43;;;;;;;19.61;59.38;101694.19;4930027;29;20055;-46
2022/08/28 13:38:51;;;;;;;0.55;0.47;;;;;;;19.54;58.65;101694.13;4948023;29;20367;-44
2022/08/28 13:41:28;;;;;;;1.63;0.70;;;;;;;19.38;57.95;101689.50;4951645;28;20043;-43
2022/08/28 13:48:07;;;;;;;2.83;1.15;;;;;;;19.23;59.21;101696.09;4944808;29;20036;-44
2022/08/28 13:50:36;;;;;;;3.25;1.05;;;;;;;19.25;59.86;101695.69;4954016;29;20043;-44
2022/08/28 13:54:06;;;;;;;1.88;1.00;;;;;;;19.25;60.41;101695.69;4944774;29;20043;-45
2022/08/28 13:57:10;;;;;;;3.78;1.63;;;;;;;19.26;60.64;101692.53;4948530;29;20047;-44
2022/08/28 13:59:58;;;;;;;6.80;1.73;;;;;;;19.25;60.56;101692.91;4948457;28;20122;-45
2022/08/28 14:05:11;;;;;;;5.28;1.20;;;;;;;19.17;59.32;101688.38;4936639;29;20055;-46
2022/08/28 14:19:02;;;;;;;4.47;1.52;;;;;;;19.09;56.83;101692.31;4948755;28;20043;-43
2022/08/28 14:25:46;;;;;;;5.53;1.80;;;;;;;19.05;54.57;101683.81;4943492;29;20032;-48
2022/08/28 14:28:15;;;;;;;2.17;1.30;;;;;;;19.03;53.77;101685.41;4951583;29;20043;-46
2022/08/28 14:34:25;;;;;;;3.70;2.00;;;;;;;19.06;52.82;101679.03;4948208;29;20036;-43
2022/08/28 14:36:54;;;;;;;1.85;0.90;;;;;;;19.05;52.88;101674.59;4943883;29;20048;-45
2022/08/28 14:39:24;;;;;;;2.00;1.25;;;;;;;19.05;53.52;101672.59;4951524;29;20046;-43
2022/08/28 14:41:52;;;;;;;3.35;1.40;;;;;;;19.09;53.80;101676.25;4950818;29;20069;-44
2022/08/28 14:44:21;;;;;;;1.63;0.90;;;;;;;19.12;54.31;101685.91;4949874;29;20394;-45
2022/08/28 14:46:49;;;;;;;3.55;0.93;;;;;;;19.13;54.27;101679.94;4950690;29;20039;-43
2022/08/28 14:49:17;;;;;;;1.77;0.77;;;;;;;19.14;54.34;101675.13;4944383;29;20058;-47
2022/08/28 14:51:45;;;;;;;3.05;0.82;;;;;;;19.13;54.79;101667.88;4948582;28;20375;-43
2022/08/28 14:54:14;;;;;;;2.30;1.10;;;;;;;19.17;55.52;101661.13;4947214;28;20047;-45
2022/08/28 14:56:43;;;;;;;0.88;0.70;;;;;;;19.24;55.99;101674.44;4951129;29;20047;-43
2022/08/28 14:59:12;;;;;;;1.70;0.95;;;;;;;19.33;56.18;101672.13;4948837;29;20051;-45
2022/08/28 15:01:47;;;;;;;2.75;1.10;;;;;;;19.37;56.21;101673.84;4952795;29;20417;-43
2022/08/28 15:04:18;;;;;;;0.50;0.50;;;;;;;19.41;56.18;101683.13;4955030;29;20047;-43
2022/08/28 15:10:40;;;;;;;3.30;1.00;;;;;;;19.61;56.53;101675.34;4947055;29;20043;-43
2022/08/28 15:16:58;;;;;;;2.55;0.90;;;;;;;19.73;56.25;101680.69;4954736;29;20090;-46
2022/08/28 15:26:30;;;;;;;2.25;0.85;;;;;;;19.84;55.00;101670.38;4946897;29;20054;-45
2022/08/28 15:36:29;;;;;;;0.90;0.63;;;;;;;19.66;55.12;101680.59;4937696;28;20110;-45
2022/08/28 15:48:54;;;;;;;2.55;0.80;;;;;;;19.77;54.08;101684.34;4953694;29;20106;-45
2022/08/28 15:51:23;;;;;;;0.70;0.35;;;;;;;19.80;54.20;101680.75;4954375;29;20051;-44
2022/08/28 16:02:00;;;;;;;1.70;0.93;;;;;;;19.51;53.04;101669.59;4933627;29;20455;-43
2022/08/28 16:07:38;;;;;;;1.30;1.15;;;;;;;19.35;53.48;101666.97;4953148;29;20448;-45
2022/08/28 16:13:32;;;;;;;1.48;0.60;;;;;;;19.34;53.66;101670.97;4943919;29;20413;-44
2022/08/28 16:16:00;;;;;;;1.20;0.40;;;;;;;19.36;53.69;101672.19;4954387;29;20047;-43
2022/08/28 16:18:27;;;;;;;2.97;1.08;;;;;;;19.32;53.30;101673.34;4952109;28;20462;-44
2022/08/28 16:24:44;;;;;;;3.30;1.40;;;;;;;19.24;53.53;101677.25;4957818;28;20552;-43
2022/08/28 16:27:12;;;;;;;3.63;0.93;;;;;;;19.25;53.94;101681.66;4956825;28;20476;-45
2022/08/28 16:37:52;;;;;;;2.45;0.77;;;;;;;19.13;51.74;101673.50;4955706;28;20166;-44
2022/08/28 16:44:48;;;;;;;1.52;1.40;;;;;;;18.96;52.24;101674.88;4958630;29;20050;-43
2022/08/28 16:47:15;;;;;;;3.75;1.33;;;;;;;18.97;52.03;101679.31;4956195;29;20039;-44
2022/08/28 16:53:33;;;;;;;4.68;1.50;;;;;;;18.99;50.95;101674.09;4954881;29;20529;-43
2022/08/28 16:56:01;;;;;;;4.80;1.58;;;;;;;19.02;51.26;101676.16;4945524;29;20370;-44
2022/08/28 16:58:28;;;;;;;1.20;0.70;;;;;;;19.00;51.36;101677.72;4957698;29;20055;-45
2022/08/28 17:00:55;;;;;;;3.05;1.02;;;;;;;18.98;52.15;101680.13;4958171;29;20047;-44
2022/08/28 17:03:22;;;;;;;2.63;0.98;;;;;;;18.97;52.29;101684.91;4956571;29;20556;-45
2022/08/28 17:05:53;;;;;;;2.15;0.95;;;;;;;18.97;52.81;101675.69;4958311;29;20130;-43
2022/08/28 17:08:20;;;;;;;1.85;0.88;;;;;;;18.95;52.75;101672.44;4956194;29;20062;-45
2022/08/28 17:10:47;;;;;;;9.13;1.52;;;;;;;18.94;52.83;101671.63;4939470;28;20397;-47
2022/08/28 17:13:14;;;;;;;6.05;3.17;;;;;;;18.94;52.81;101665.22;4958223;29;20482;-51
2022/08/28 17:19:32;;;;;;;3.95;1.90;;;;;;;18.92;53.61;101674.03;4956685;29;20031;-48
2022/08/28 17:24:45;;;;;;;2.08;0.93;;;;;;;18.90;53.88;101672.78;4956882;28;20039;-46
2022/08/28 17:34:56;;;;;;;2.05;0.80;;;;;;;18.86;54.62;101669.91;4950542;28;20036;-42
2022/08/28 17:37:23;;;;;;;0.75;0.70;;;;;;;18.85;54.12;101669.09;4954066;28;20078;-41
2022/08/28 17:39:52;;;;;;;2.22;0.95;;;;;;;18.82;54.97;101669.06;4954799;28;20091;-44
2022/08/28 17:42:19;;;;;;;3.08;1.35;;;;;;;18.75;55.24;101669.75;4948429;28;20070;-44
2022/08/28 17:44:46;;;;;;;3.55;1.55;;;;;;;18.67;55.39;101656.81;4952859;29;20043;-46
2022/08/28 17:47:13;;;;;;;4.95;1.70;;;;;;;18.59;55.61;101660.69;4948684;29;20039;-43
2022/08/28 17:49:40;;;;;;;6.22;2.13;;;;;;;18.54;56.24;101658.22;4950265;29;20039;-45
2022/08/28 17:52:06;;;;;;;4.90;2.63;;;;;;;18.51;56.86;101664.56;4955348;29;20051;-47
2022/08/28 17:54:33;;;;;;;3.03;1.42;;;;;;;18.53;57.39;101665.00;4940629;29;20048;-43
2022/08/28 18:00:56;;;;;;;2.90;1.65;;;;;;;18.47;58.24;101666.53;4952734;29;20050;-45
2022/08/28 18:03:23;;;;;;;;;;;;;;;18.43;58.28;101662.81;4952659;29;20497;-43
2022/08/28 18:05:50;;;;;;;1.92;1.15;;;;;;;18.42;58.30;101664.03;4950856;29;19928;-48
2022/08/28 18:08:17;;;;;;;1.20;1.08;;;;;;;18.42;58.43;101661.22;4954001;28;20035;-46
2022/08/28 18:10:44;;;;;;;3.38;1.17;;;;;;;18.43;58.32;101668.41;4951694;28;20402;-40
2022/08/28 18:13:11;;;;;;;2.53;1.38;;;;;;;18.44;58.39;101664.44;4952870;29;20039;-43
2022/08/28 18:15:59;;;;;;;3.95;1.60;;;;;;;18.42;58.48;101671.63;4951276;29;20808;-46
2022/08/28 18:22:57;;;;;;;14.10;6.03;;;;;;;18.33;59.10;101671.88;4949100;28;20043;-43
2022/08/28 18:25:44;;;;;;;3.65;1.77;;;;;;;18.30;59.32;101669.00;4946118;29;20457;-44
2022/08/28 18:28:37;;;;;;;;;;;;;;;18.22;59.17;101668.06;4942011;28;20066;-45
2022/08/28 18:35:05;;;;;;;9.05;2.70;;;;;;;18.05;59.47;101666.59;4945723;29;20035;-43
2022/08/28 18:37:32;;;;;;;4.25;1.98;;;;;;;17.98;59.92;101668.44;4953782;29;20364;-43
2022/08/28 18:39:59;;;;;;;7.57;3.25;;;;;;;17.95;60.32;101672.03;4953021;29;20536;-46
2022/08/28 18:42:27;;;;;;;5.72;2.33;;;;;;;17.92;60.66;101675.56;4948842;29;20177;-48
2022/08/28 18:44:53;;;;;;;7.38;3.38;;;;;;;17.90;60.98;101672.28;4950304;29;20493;-45
2022/08/28 18:51:05;;;;;;;3.63;2.05;;;;;;;17.77;61.71;101680.06;4949671;29;20415;-43
2022/08/28 18:57:22;;;;;;;5.40;2.40;;;;;;;17.69;62.16;101677.50;4951391;29;20130;-44
2022/08/28 18:59:52;;;;;;;3.17;1.40;;;;;;;17.70;62.80;101690.34;4948103;29;20077;-45
2022/08/28 19:02:19;;;;;;;5.72;2.30;;;;;;;17.67;62.99;101679.88;4948581;29;20067;-46
2022/08/28 19:04:46;;;;;;;6.47;2.53;;;;;;;17.65;63.36;101677.44;4949677;29;20397;-44
2022/08/28 19:07:33;;;;;;;7.72;3.30;;;;;;;17.59;63.88;101685.34;4945546;29;20043;-44
2022/08/28 19:10:20;;;;;;;5.38;2.33;;;;;;;17.54;64.22;101682.84;4946802;29;20087;-44